Time;durP1;ratioP1;P1;durP2;ratioP2;P2;SDS_P1;SDS_P2;PMS_P1;PMS_P2;Temp;Humidity;BMP_temperature;BMP_pressure;BME280_temperature;BME280_humidity;BME280_pressure;Samples;Min_cycle;Max_cycle;Signal;HPM_P1;HPM_P2
2022/11/28 00:01:19;;;;;;;27.43;14.40;;;2.30;99.90;;;;;;5027510;28;20442;-56
2022/11/28 00:03:44;;;;;;;27.00;15.70;;;2.40;99.90;;;;;;5026208;28;20425;-56
2022/11/28 00:06:10;;;;;;;30.60;15.10;;;2.30;99.90;;;;;;5022478;28;20563;-57
2022/11/28 00:08:36;;;;;;;27.50;14.43;;;2.40;99.90;;;;;;5026358;28;20243;-56
2022/11/28 00:11:04;;;;;;;32.50;14.50;;;2.30;99.90;;;;;;5017935;28;20920;-57
2022/11/28 00:13:30;;;;;;;28.67;14.93;;;2.40;99.90;;;;;;5023443;28;20300;-56
2022/11/28 00:16:01;;;;;;;29.27;15.70;;;2.40;99.90;;;;;;5022982;28;21032;-55
2022/11/28 00:18:27;;;;;;;30.30;16.50;;;2.40;99.90;;;;;;5038682;28;20202;-56
2022/11/28 00:20:59;;;;;;;27.70;15.00;;;2.40;99.90;;;;;;5020735;28;20476;-56
2022/11/28 00:23:24;;;;;;;32.60;15.50;;;2.40;99.90;;;;;;5026368;28;20426;-56
2022/11/28 00:26:02;;;;;;;27.50;15.60;;;2.40;99.90;;;;;;5023205;28;20465;-57
2022/11/28 00:28:27;;;;;;;26.90;14.27;;;2.40;99.90;;;;;;5023775;28;20298;-56
2022/11/28 00:30:53;;;;;;;28.60;14.97;;;2.40;99.90;;;;;;5028994;28;20884;-56
2022/11/28 00:33:19;;;;;;;29.13;16.70;;;2.40;99.90;;;;;;5029337;28;20175;-56
2022/11/28 00:35:44;;;;;;;27.87;15.03;;;2.40;99.90;;;;;;5029556;28;20184;-57
2022/11/28 00:38:10;;;;;;;30.43;15.83;;;2.50;99.90;;;;;;5026104;28;20250;-60
2022/11/28 00:40:36;;;;;;;33.10;14.73;;;2.50;99.90;;;;;;5026134;28;20398;-56
2022/11/28 00:43:01;;;;;;;26.40;14.83;;;2.40;99.90;;;;;;5026098;28;20191;-57
2022/11/28 00:45:27;;;;;;;31.60;17.30;;;2.50;99.90;;;;;;5012198;28;20618;-55
2022/11/28 00:47:52;;;;;;;29.50;15.63;;;2.50;99.90;;;;;;5032388;28;20206;-56
2022/11/28 00:50:18;;;;;;;29.37;15.13;;;2.40;99.90;;;;;;5025901;28;20176;-55
2022/11/28 00:52:44;;;;;;;25.50;14.70;;;2.40;99.90;;;;;;5027898;28;20176;-56
2022/11/28 00:55:09;;;;;;;30.20;15.13;;;2.40;99.90;;;;;;5024738;28;20179;-56
2022/11/28 00:57:35;;;;;;;30.13;14.70;;;2.40;99.90;;;;;;5028956;28;20667;-55
2022/11/28 01:00:00;;;;;;;26.63;14.63;;;2.40;99.90;;;;;;5022561;28;20200;-56
2022/11/28 01:02:26;;;;;;;26.53;14.40;;;2.40;99.90;;;;;;5033609;28;20194;-58
2022/11/28 01:04:52;;;;;;;29.53;14.13;;;2.40;99.90;;;;;;5029559;28;20188;-55
2022/11/28 01:07:18;;;;;;;25.20;15.07;;;2.40;99.90;;;;;;5025835;28;21099;-57
2022/11/28 01:09:43;;;;;;;24.20;13.97;;;2.40;99.90;;;;;;5024048;28;20202;-56
2022/11/28 01:12:09;;;;;;;27.20;14.10;;;2.40;99.90;;;;;;5024643;28;20672;-56
2022/11/28 01:14:34;;;;;;;34.63;15.73;;;2.30;99.90;;;;;;5021836;28;20250;-56
2022/11/28 01:17:00;;;;;;;28.87;14.87;;;2.30;99.90;;;;;;5028749;28;20180;-56
2022/11/28 01:19:26;;;;;;;30.27;15.57;;;2.40;99.90;;;;;;5013047;28;20547;-55
2022/11/28 01:21:51;;;;;;;27.87;15.10;;;2.40;99.90;;;;;;5030437;28;20661;-55
2022/11/28 01:24:17;;;;;;;26.57;14.20;;;2.40;99.90;;;;;;5031686;28;20822;-55
2022/11/28 01:26:43;;;;;;;26.63;14.60;;;2.40;99.90;;;;;;5034602;28;20709;-55
2022/11/28 01:29:09;;;;;;;26.20;14.30;;;2.40;99.90;;;;;;5031861;28;20201;-56
2022/11/28 01:31:35;;;;;;;24.67;13.27;;;2.40;99.90;;;;;;5028169;28;20215;-57
2022/11/28 01:34:00;;;;;;;23.47;13.90;;;2.40;99.90;;;;;;5025942;28;20430;-56
2022/11/28 01:36:27;;;;;;;28.90;14.40;;;2.40;99.90;;;;;;5022227;28;20438;-56
2022/11/28 01:38:52;;;;;;;20.73;12.97;;;2.30;99.90;;;;;;5026908;28;20199;-56
2022/11/28 01:41:22;;;;;;;24.60;12.87;;;2.30;99.90;;;;;;5025326;28;20937;-57
2022/11/28 01:44:05;;;;;;;26.47;13.70;;;2.30;99.90;;;;;;5007484;28;20230;-57
2022/11/28 01:46:31;;;;;;;21.73;12.27;;;2.30;99.90;;;;;;5028783;28;20880;-57
2022/11/28 01:49:20;;;;;;;28.43;12.43;;;2.30;99.90;;;;;;5026350;28;20465;-56
2022/11/28 01:51:49;;;;;;;22.20;12.70;;;2.30;99.90;;;;;;5023440;28;20438;-56
2022/11/28 01:54:17;;;;;;;22.87;13.17;;;2.20;99.90;;;;;;5020088;28;20429;-56
2022/11/28 01:57:05;;;;;;;22.00;11.23;;;2.20;99.90;;;;;;5001343;28;20523;-56
2022/11/28 01:59:43;;;;;;;23.00;12.70;;;2.30;99.90;;;;;;5026277;28;20477;-56
2022/11/28 02:02:18;;;;;;;24.80;13.50;;;2.20;99.90;;;;;;5028738;28;20425;-56
2022/11/28 02:04:45;;;;;;;23.30;11.80;;;2.20;99.90;;;;;;5030932;28;20429;-57
2022/11/28 02:07:11;;;;;;;20.73;12.60;;;2.20;99.90;;;;;;5030109;28;20461;-56
2022/11/28 02:09:37;;;;;;;23.47;12.30;;;2.20;99.90;;;;;;5031916;28;20442;-57
2022/11/28 02:12:16;;;;;;;20.00;11.33;;;2.20;99.90;;;;;;5011321;28;20425;-55
2022/11/28 02:15:11;;;;;;;19.10;11.53;;;2.20;99.90;;;;;;5009209;28;20182;-57
2022/11/28 02:17:53;;;;;;;21.37;12.53;;;2.30;99.90;;;;;;5009260;28;20433;-57
2022/11/28 02:20:43;;;;;;;23.03;11.43;;;2.30;99.90;;;;;;5024523;28;20435;-57
2022/11/28 02:23:16;;;;;;;24.07;13.03;;;2.30;99.90;;;;;;5022959;28;20521;-56
2022/11/28 02:26:20;;;;;;;19.27;11.80;;;2.30;99.90;;;;;;5019845;28;21035;-56
2022/11/28 02:29:06;;;;;;;26.47;12.47;;;2.30;99.90;;;;;;5029562;28;21138;-56
2022/11/28 02:32:08;;;;;;;21.83;11.40;;;2.30;99.90;;;;;;5024983;28;20430;-56
2022/11/28 02:34:39;;;;;;;20.57;11.80;;;2.30;99.90;;;;;;5026603;28;20776;-57
2022/11/28 02:37:18;;;;;;;19.60;12.00;;;2.20;99.90;;;;;;5017737;28;20427;-55
2022/11/28 02:40:00;;;;;;;24.43;13.03;;;2.20;99.90;;;;;;5026214;28;20962;-57
2022/11/28 02:42:52;;;;;;;23.37;13.10;;;2.20;99.90;;;;;;5020226;28;20534;-56
2022/11/28 02:45:28;;;;;;;25.50;12.97;;;2.20;99.90;;;;;;4992126;28;20961;-56
2022/11/28 02:48:02;;;;;;;25.10;13.20;;;2.30;99.90;;;;;;5023883;28;20477;-57
2022/11/28 02:50:32;;;;;;;22.23;11.43;;;2.30;99.90;;;;;;5010263;28;20442;-56
2022/11/28 02:53:09;;;;;;;21.57;12.07;;;2.30;99.90;;;;;;5022852;28;20466;-58
2022/11/28 02:55:42;;;;;;;22.43;12.93;;;2.30;99.90;;;;;;5020210;28;20441;-56
2022/11/28 02:58:10;;;;;;;22.50;12.93;;;2.30;99.90;;;;;;5025315;28;20874;-56
2022/11/28 03:00:38;;;;;;;24.57;13.10;;;2.30;99.90;;;;;;5029046;28;20440;-57
2022/11/28 03:03:09;;;;;;;25.10;13.00;;;2.30;99.90;;;;;;5004916;28;20449;-57
2022/11/28 03:05:35;;;;;;;23.60;12.40;;;2.30;99.90;;;;;;5026371;28;20564;-57
2022/11/28 03:08:38;;;;;;;19.60;12.07;;;2.30;99.90;;;;;;5019301;28;20472;-56
2022/11/28 03:11:03;;;;;;;22.33;12.40;;;2.30;99.90;;;;;;4972847;28;20201;-57
2022/11/28 03:13:44;;;;;;;26.13;13.33;;;2.30;99.90;;;;;;5024854;28;20426;-56
2022/11/28 03:16:22;;;;;;;27.27;13.50;;;2.20;99.90;;;;;;5026919;28;20174;-56
2022/11/28 03:19:13;;;;;;;24.23;13.43;;;2.30;99.90;;;;;;5024933;28;20478;-57
2022/11/28 03:22:02;;;;;;;25.93;13.80;;;2.30;99.90;;;;;;5025439;28;20417;-58
2022/11/28 03:24:49;;;;;;;24.43;12.93;;;2.30;99.90;;;;;;5022590;28;21161;-57
2022/11/28 03:27:24;;;;;;;25.70;13.40;;;2.30;99.90;;;;;;5023571;28;20957;-59
2022/11/28 03:29:54;;;;;;;22.07;12.33;;;2.30;99.90;;;;;;5027370;28;20549;-56
2022/11/28 03:32:28;;;;;;;26.67;12.90;;;2.30;99.90;;;;;;5012272;28;20441;-57
2022/11/28 03:35:01;;;;;;;22.20;12.57;;;2.30;99.90;;;;;;5024816;28;20929;-58
2022/11/28 03:37:31;;;;;;;21.63;11.83;;;2.30;99.90;;;;;;5003272;28;20438;-57
2022/11/28 03:40:06;;;;;;;22.93;12.03;;;2.30;99.90;;;;;;5025801;28;20485;-57
2022/11/28 03:42:37;;;;;;;23.83;13.40;;;2.30;99.90;;;;;;5030220;28;20646;-57
2022/11/28 03:45:21;;;;;;;23.93;12.37;;;2.30;99.90;;;;;;5022155;28;20430;-58
2022/11/28 03:47:52;;;;;;;23.30;12.87;;;2.30;99.90;;;;;;5027368;28;20584;-59
2022/11/28 03:50:30;;;;;;;24.70;13.47;;;2.30;99.90;;;;;;5030343;28;20565;-57
2022/11/28 03:53:02;;;;;;;20.33;11.60;;;2.30;99.90;;;;;;5027720;28;20480;-57
2022/11/28 03:56:08;;;;;;;21.97;11.87;;;2.30;99.90;;;;;;5024144;28;20994;-56
2022/11/28 03:58:48;;;;;;;21.73;11.87;;;2.30;99.90;;;;;;4992350;28;20491;-56
2022/11/28 04:01:38;;;;;;;18.70;11.70;;;2.30;99.90;;;;;;5014161;28;20439;-57
2022/11/28 04:04:29;;;;;;;22.57;11.63;;;2.30;99.90;;;;;;5025387;28;20432;-56
2022/11/28 04:07:15;;;;;;;25.30;11.13;;;2.30;99.90;;;;;;5026724;28;20553;-57
2022/11/28 04:09:48;;;;;;;22.53;12.10;;;2.30;99.90;;;;;;5022410;28;20458;-58
2022/11/28 04:12:45;;;;;;;19.23;11.43;;;2.30;99.90;;;;;;5026473;28;20435;-58
2022/11/28 04:15:20;;;;;;;22.53;11.00;;;2.30;99.90;;;;;;5009750;28;20440;-59
2022/11/28 04:18:11;;;;;;;20.43;11.03;;;2.30;99.90;;;;;;5025116;28;20472;-58
2022/11/28 04:21:10;;;;;;;25.03;12.30;;;2.30;99.90;;;;;;5024722;28;20485;-59
2022/11/28 04:23:39;;;;;;;23.07;12.07;;;2.20;99.90;;;;;;5006972;28;20525;-57
2022/11/28 04:26:21;;;;;;;20.90;11.00;;;2.20;99.90;;;;;;5025516;28;20517;-58
2022/11/28 04:28:48;;;;;;;22.20;11.90;;;2.20;99.90;;;;;;5028216;28;20525;-57
2022/11/28 04:31:16;;;;;;;17.87;11.50;;;2.20;99.90;;;;;;5030489;28;20476;-58
2022/11/28 04:33:46;;;;;;;21.97;11.57;;;2.20;99.90;;;;;;5033446;28;20426;-57
2022/11/28 04:36:15;;;;;;;22.90;11.90;;;2.20;99.90;;;;;;5025748;28;20802;-58
2022/11/28 04:38:42;;;;;;;24.70;11.60;;;2.20;99.90;;;;;;5015788;28;21017;-58
2022/11/28 04:41:17;;;;;;;21.00;11.37;;;2.20;99.90;;;;;;5029200;28;20436;-58
2022/11/28 04:43:52;;;;;;;22.30;11.67;;;2.20;99.90;;;;;;5026846;28;20938;-59
2022/11/28 04:46:23;;;;;;;23.13;12.20;;;2.20;99.90;;;;;;5030138;28;20468;-58
2022/11/28 04:48:49;;;;;;;21.60;11.23;;;2.20;99.90;;;;;;5024607;28;20455;-58
2022/11/28 04:51:20;;;;;;;20.93;11.70;;;2.20;99.90;;;;;;5033210;28;20427;-59
2022/11/28 04:54:00;;;;;;;24.23;12.60;;;2.30;99.90;;;;;;5029080;28;20178;-58
2022/11/28 04:56:50;;;;;;;21.97;10.50;;;2.20;99.90;;;;;;5015564;28;20452;-58
2022/11/28 04:59:18;;;;;;;19.87;10.73;;;2.20;99.90;;;;;;5027910;28;20473;-58
2022/11/28 05:01:46;;;;;;;25.03;11.43;;;2.20;99.90;;;;;;5017532;28;20467;-61
2022/11/28 05:04:13;;;;;;;21.73;11.03;;;2.20;99.90;;;;;;5023741;28;20469;-61
2022/11/28 05:06:38;;;;;;;18.17;10.60;;;2.20;99.90;;;;;;5019697;28;20902;-60
2022/11/28 05:09:04;;;;;;;15.47;9.10;;;2.20;99.90;;;;;;5026821;28;20550;-60
2022/11/28 05:11:30;;;;;;;14.70;8.37;;;2.20;99.90;;;;;;5014845;28;20183;-58
2022/11/28 05:13:56;;;;;;;17.63;9.97;;;2.20;99.90;;;;;;5024482;28;20194;-59
2022/11/28 05:16:22;;;;;;;18.77;10.07;;;2.20;99.90;;;;;;5021394;28;20831;-59
2022/11/28 05:18:48;;;;;;;16.40;10.17;;;2.20;99.90;;;;;;5019589;28;20321;-60
2022/11/28 05:21:14;;;;;;;19.43;10.17;;;2.20;99.90;;;;;;5019324;28;20459;-60
2022/11/28 05:23:42;;;;;;;20.03;11.93;;;2.20;99.90;;;;;;5008832;28;20434;-60
2022/11/28 05:26:10;;;;;;;21.93;13.70;;;2.20;99.90;;;;;;5026181;28;20298;-60
2022/11/28 05:28:35;;;;;;;22.60;12.20;;;2.20;99.90;;;;;;5023752;28;20453;-59
2022/11/28 05:31:01;;;;;;;17.93;10.00;;;2.20;99.90;;;;;;5027908;28;20464;-60
2022/11/28 05:33:31;;;;;;;20.40;10.90;;;2.20;99.90;;;;;;5021766;28;21011;-60
2022/11/28 05:36:04;;;;;;;15.73;9.40;;;2.10;99.90;;;;;;5021645;28;20794;-59
2022/11/28 05:38:32;;;;;;;20.13;10.70;;;2.10;99.90;;;;;;5015534;28;20450;-60
2022/11/28 05:40:58;;;;;;;15.57;9.50;;;2.10;99.90;;;;;;5019591;28;20530;-57
2022/11/28 05:43:24;;;;;;;18.17;10.50;;;2.10;99.90;;;;;;5018559;28;20436;-60
2022/11/28 05:45:50;;;;;;;19.97;11.13;;;2.10;99.90;;;;;;5022367;28;20426;-60
2022/11/28 05:48:15;;;;;;;18.60;11.30;;;2.10;99.90;;;;;;5021024;28;20202;-60
2022/11/28 05:50:41;;;;;;;20.80;9.93;;;2.10;99.90;;;;;;5015125;28;20202;-59
2022/11/28 05:53:08;;;;;;;17.93;10.53;;;2.10;99.90;;;;;;5023251;28;20817;-59
2022/11/28 05:55:36;;;;;;;19.67;10.67;;;2.10;99.90;;;;;;5025765;28;20427;-59
2022/11/28 05:58:01;;;;;;;18.80;10.43;;;2.10;99.90;;;;;;5025742;28;20426;-59
2022/11/28 06:00:27;;;;;;;20.80;10.87;;;2.10;99.90;;;;;;5029215;28;20444;-59
2022/11/28 06:02:52;;;;;;;18.27;10.43;;;2.00;99.90;;;;;;5015910;28;20766;-60
2022/11/28 06:05:18;;;;;;;17.50;9.90;;;2.00;99.90;;;;;;5030955;28;20175;-60
2022/11/28 06:07:44;;;;;;;15.43;10.20;;;2.00;99.90;;;;;;5021504;28;20252;-59
2022/11/28 06:10:10;;;;;;;18.90;10.50;;;2.10;99.90;;;;;;5029447;28;20191;-59
2022/11/28 06:12:36;;;;;;;19.17;11.00;;;2.10;99.90;;;;;;5029549;28;20769;-59
2022/11/28 06:15:01;;;;;;;14.60;9.00;;;2.10;99.90;;;;;;5029515;28;20172;-59
2022/11/28 06:17:27;;;;;;;15.43;8.77;;;2.10;99.90;;;;;;5027507;28;20184;-59
2022/11/28 06:19:52;;;;;;;18.53;10.40;;;2.00;99.90;;;;;;5028576;28;20195;-59
2022/11/28 06:22:18;;;;;;;15.13;9.77;;;2.00;99.90;;;;;;5024475;28;20178;-59
2022/11/28 06:24:44;;;;;;;23.93;12.53;;;2.00;99.90;;;;;;5026734;28;20215;-59
2022/11/28 06:27:09;;;;;;;24.50;12.53;;;2.00;99.90;;;;;;5024067;28;20195;-60
2022/11/28 06:29:35;;;;;;;26.10;14.40;;;2.00;99.90;;;;;;5029681;28;20192;-59
2022/11/28 06:32:00;;;;;;;28.17;14.73;;;2.00;99.90;;;;;;5030097;28;20546;-59
2022/11/28 06:34:26;;;;;;;22.07;14.43;;;2.00;99.90;;;;;;5026884;28;20179;-59
2022/11/28 06:36:52;;;;;;;29.37;14.60;;;2.00;99.90;;;;;;5021977;28;20175;-60
2022/11/28 06:39:18;;;;;;;29.77;13.47;;;2.00;99.90;;;;;;5032813;28;20446;-61
2022/11/28 06:41:44;;;;;;;22.57;12.60;;;2.00;99.90;;;;;;5029265;28;20217;-60
2022/11/28 06:44:13;;;;;;;22.63;13.20;;;2.00;99.90;;;;;;5028564;28;20186;-60
2022/11/28 06:46:39;;;;;;;22.63;12.63;;;2.00;99.90;;;;;;5027877;28;20468;-61
2022/11/28 06:49:05;;;;;;;22.00;11.47;;;2.10;99.90;;;;;;5035510;28;20438;-60
2022/11/28 06:51:30;;;;;;;24.23;11.70;;;2.10;99.90;;;;;;5021928;28;20217;-60
2022/11/28 06:53:56;;;;;;;25.27;11.70;;;2.10;99.90;;;;;;5019171;28;20237;-61
2022/11/28 06:56:22;;;;;;;38.33;13.90;;;2.10;99.90;;;;;;5035258;28;20183;-60
2022/11/28 06:58:54;;;;;;;22.93;11.67;;;2.10;99.90;;;;;;5029224;28;20207;-60
2022/11/28 07:01:22;;;;;;;38.43;16.77;;;2.10;99.90;;;;;;5028031;28;20515;-60
2022/11/28 07:03:48;;;;;;;35.33;16.20;;;2.10;99.90;;;;;;5037930;28;21010;-60
2022/11/28 07:06:16;;;;;;;31.23;16.70;;;2.20;99.90;;;;;;5011130;28;20454;-59
2022/11/28 07:08:42;;;;;;;26.50;12.70;;;2.10;99.90;;;;;;5011332;28;20263;-60
2022/11/28 07:11:20;;;;;;;23.13;12.67;;;2.20;99.90;;;;;;5027830;28;20529;-60
2022/11/28 07:13:46;;;;;;;21.87;12.13;;;2.20;99.90;;;;;;5027067;28;20441;-60
2022/11/28 07:16:15;;;;;;;24.27;12.67;;;2.20;99.90;;;;;;5025001;28;20430;-61
2022/11/28 07:18:41;;;;;;;19.70;11.27;;;2.20;99.90;;;;;;5033559;28;20969;-60
2022/11/28 07:21:06;;;;;;;22.60;11.43;;;2.20;99.90;;;;;;5024470;28;20433;-60
2022/11/28 07:23:32;;;;;;;22.60;11.90;;;2.20;99.90;;;;;;5011195;28;20176;-60
2022/11/28 07:26:02;;;;;;;20.23;10.90;;;2.20;99.90;;;;;;5028602;28;20209;-60
2022/11/28 07:28:29;;;;;;;21.10;11.60;;;2.20;99.90;;;;;;5025735;28;20201;-60
2022/11/28 07:31:05;;;;;;;29.03;11.80;;;2.20;99.90;;;;;;5036191;28;21100;-60
2022/11/28 07:33:32;;;;;;;19.40;11.67;;;2.20;99.90;;;;;;5027379;28;20441;-60
2022/11/28 07:36:05;;;;;;;20.57;12.10;;;2.20;99.90;;;;;;5029984;28;20437;-60
2022/11/28 07:38:32;;;;;;;22.60;13.97;;;2.20;99.90;;;;;;5009827;28;21002;-60
2022/11/28 07:41:07;;;;;;;23.07;12.90;;;2.30;99.90;;;;;;5027770;28;20430;-60
2022/11/28 07:43:33;;;;;;;28.27;13.83;;;2.30;99.90;;;;;;5029246;28;20429;-60
2022/11/28 07:46:01;;;;;;;28.17;13.80;;;2.30;99.90;;;;;;5020817;28;20422;-60
2022/11/28 07:48:27;;;;;;;25.77;13.13;;;2.30;99.90;;;;;;5026834;28;20202;-60
2022/11/28 07:50:52;;;;;;;38.07;14.00;;;2.40;99.90;;;;;;5028617;28;20438;-60
2022/11/28 07:53:18;;;;;;;29.37;15.13;;;2.40;99.90;;;;;;5031824;28;20191;-60
2022/11/28 07:55:44;;;;;;;28.00;14.50;;;2.40;99.90;;;;;;5017436;28;20195;-60
2022/11/28 07:58:09;;;;;;;27.57;13.23;;;2.30;99.90;;;;;;5027045;28;20211;-60
2022/11/28 08:00:35;;;;;;;25.07;11.73;;;2.40;99.90;;;;;;5027095;28;20172;-60
2022/11/28 08:03:00;;;;;;;18.90;10.93;;;2.40;99.90;;;;;;5030223;28;20580;-59
2022/11/28 08:05:26;;;;;;;23.70;10.87;;;2.40;99.90;;;;;;5025529;28;20183;-60
2022/11/28 08:07:52;;;;;;;21.13;11.27;;;2.40;99.90;;;;;;5027170;28;20278;-60
2022/11/28 08:10:17;;;;;;;27.53;12.93;;;2.40;99.90;;;;;;5028905;28;20644;-60
2022/11/28 08:12:43;;;;;;;25.43;12.57;;;2.40;99.90;;;;;;5028359;28;20672;-60
2022/11/28 08:15:09;;;;;;;20.20;10.97;;;2.50;99.90;;;;;;5023679;28;20281;-60
2022/11/28 08:17:35;;;;;;;21.23;11.77;;;2.50;99.90;;;;;;5029406;28;20250;-60
2022/11/28 08:20:01;;;;;;;23.73;12.43;;;2.50;99.90;;;;;;5029875;28;20458;-60
2022/11/28 08:22:27;;;;;;;26.20;12.83;;;2.50;99.90;;;;;;5026470;28;20172;-60
2022/11/28 08:24:52;;;;;;;21.20;10.90;;;2.50;99.90;;;;;;5022667;28;20579;-60
2022/11/28 08:27:18;;;;;;;18.37;11.33;;;2.50;99.90;;;;;;5028055;28;20458;-61
2022/11/28 08:29:44;;;;;;;18.00;10.33;;;2.60;99.90;;;;;;5028065;28;20195;-60
2022/11/28 08:32:10;;;;;;;16.80;9.23;;;2.60;99.90;;;;;;5029154;28;20175;-60
2022/11/28 08:34:35;;;;;;;16.63;9.37;;;2.60;99.90;;;;;;5027117;28;20501;-60
2022/11/28 08:37:01;;;;;;;22.17;10.73;;;2.60;99.90;;;;;;5032732;28;20242;-60
2022/11/28 08:39:27;;;;;;;29.27;14.00;;;2.60;99.90;;;;;;5022553;28;20199;-59
2022/11/28 08:41:56;;;;;;;25.23;13.10;;;2.70;99.90;;;;;;5026026;28;20546;-60
2022/11/28 08:44:22;;;;;;;24.00;13.00;;;2.70;99.90;;;;;;5025764;28;20183;-60
2022/11/28 08:46:47;;;;;;;21.10;11.13;;;2.80;99.90;;;;;;5010131;28;20477;-60
2022/11/28 08:49:13;;;;;;;20.50;10.70;;;2.80;99.90;;;;;;5021987;28;20446;-60
2022/11/28 08:51:39;;;;;;;22.23;12.03;;;2.80;99.90;;;;;;5012501;28;20176;-60
2022/11/28 08:54:04;;;;;;;17.80;9.77;;;2.90;99.90;;;;;;5027943;28;20602;-59
2022/11/28 08:56:30;;;;;;;24.43;11.70;;;2.90;99.90;;;;;;5033570;28;20187;-60
2022/11/28 08:58:56;;;;;;;20.27;12.07;;;2.90;99.90;;;;;;5037440;28;20218;-60
2022/11/28 09:01:24;;;;;;;26.90;11.00;;;2.90;99.90;;;;;;5025890;28;20176;-59
2022/11/28 09:03:50;;;;;;;22.10;11.67;;;2.90;99.90;;;;;;5028563;28;20172;-61
2022/11/28 09:06:17;;;;;;;22.93;11.90;;;2.90;99.90;;;;;;5026546;28;20469;-60
2022/11/28 09:08:43;;;;;;;21.10;12.17;;;2.90;99.90;;;;;;5012852;28;20462;-59
2022/11/28 09:11:12;;;;;;;24.90;12.73;;;3.00;99.90;;;;;;5022938;28;20418;-61
2022/11/28 09:13:38;;;;;;;24.87;13.27;;;3.00;99.90;;;;;;5028154;28;20441;-59
2022/11/28 09:16:04;;;;;;;21.70;12.77;;;3.00;99.90;;;;;;5029793;28;20435;-59
2022/11/28 09:18:30;;;;;;;23.97;12.10;;;3.00;99.90;;;;;;5025219;28;20465;-61
2022/11/28 09:20:58;;;;;;;20.20;11.47;;;3.00;99.90;;;;;;5023449;28;21110;-60
2022/11/28 09:23:23;;;;;;;21.53;11.43;;;3.10;99.90;;;;;;5031145;28;20813;-60
2022/11/28 09:25:49;;;;;;;23.07;11.90;;;3.10;99.90;;;;;;5012511;28;20905;-60
2022/11/28 09:28:14;;;;;;;27.03;12.90;;;3.10;99.90;;;;;;5011714;28;20757;-60
2022/11/28 09:30:40;;;;;;;23.00;13.57;;;3.20;99.90;;;;;;5028254;28;20195;-60
2022/11/28 09:33:05;;;;;;;29.77;14.80;;;3.20;99.90;;;;;;5030986;28;20176;-60
2022/11/28 09:35:31;;;;;;;29.33;15.43;;;3.30;99.90;;;;;;5031252;28;20182;-60
2022/11/28 09:37:57;;;;;;;31.83;15.77;;;3.30;99.90;;;;;;5035099;28;20431;-59
2022/11/28 09:40:36;;;;;;;30.77;15.40;;;3.40;99.90;;;;;;5030282;28;20233;-59
2022/11/28 09:43:05;;;;;;;30.97;15.33;;;3.40;99.90;;;;;;5012098;28;20431;-59
2022/11/28 09:45:32;;;;;;;30.73;15.60;;;3.40;99.90;;;;;;5016236;28;20414;-59
2022/11/28 09:48:11;;;;;;;28.83;12.97;;;3.50;99.90;;;;;;5021944;28;20466;-60
2022/11/28 09:50:40;;;;;;;26.47;13.80;;;3.50;99.90;;;;;;5027508;28;20470;-59
2022/11/28 09:53:33;;;;;;;23.07;13.00;;;3.60;99.90;;;;;;5029220;28;21405;-59
2022/11/28 09:56:20;;;;;;;29.27;13.10;;;3.60;99.90;;;;;;5023889;28;20477;-60
2022/11/28 09:59:02;;;;;;;24.27;12.47;;;3.70;99.90;;;;;;5026974;28;20484;-58
2022/11/28 10:01:30;;;;;;;20.80;12.37;;;3.60;99.90;;;;;;5031943;28;20417;-60
2022/11/28 10:04:11;;;;;;;26.63;12.63;;;3.70;99.90;;;;;;5012413;28;20434;-57
2022/11/28 10:06:53;;;;;;;24.33;11.57;;;3.70;99.90;;;;;;5019175;28;20519;-59
2022/11/28 10:09:25;;;;;;;20.97;12.17;;;3.70;99.90;;;;;;5030110;28;20446;-59
2022/11/28 10:12:27;;;;;;;22.73;12.50;;;3.80;99.90;;;;;;5030304;28;21128;-59
2022/11/28 10:15:09;;;;;;;25.50;13.43;;;3.80;99.90;;;;;;5029357;28;20429;-60
2022/11/28 10:18:19;;;;;;;23.13;12.77;;;3.80;99.90;;;;;;5028645;28;20833;-60
2022/11/28 10:20:46;;;;;;;25.57;13.17;;;3.90;99.90;;;;;;5016558;28;20439;-60
2022/11/28 10:23:37;;;;;;;23.93;14.23;;;3.90;99.90;;;;;;5032908;28;20422;-60
2022/11/28 10:26:41;;;;;;;24.87;14.00;;;4.00;99.90;;;;;;5025331;28;20462;-59
2022/11/28 10:29:36;;;;;;;31.30;16.73;;;4.00;99.90;;;;;;4951746;28;20457;-59
2022/11/28 10:32:03;;;;;;;31.00;15.27;;;4.10;99.90;;;;;;4985890;28;20473;-60
2022/11/28 10:34:29;;;;;;;24.33;15.10;;;4.10;99.90;;;;;;5024517;28;20458;-59
2022/11/28 10:37:10;;;;;;;25.30;14.70;;;4.10;99.90;;;;;;5034886;28;20949;-60
2022/11/28 10:39:42;;;;;;;22.50;14.60;;;4.10;99.90;;;;;;5025008;28;20453;-60
2022/11/28 10:42:18;;;;;;;26.47;15.90;;;4.20;99.90;;;;;;5023836;28;20599;-59
2022/11/28 10:45:00;;;;;;;26.40;14.03;;;4.20;99.90;;;;;;5027238;28;20453;-60
2022/11/28 10:47:50;;;;;;;24.10;13.63;;;4.20;99.90;;;;;;5019461;28;20462;-60
2022/11/28 10:50:43;;;;;;;26.60;14.30;;;4.20;99.90;;;;;;5018864;28;20911;-60
2022/11/28 10:53:17;;;;;;;23.60;13.73;;;4.20;99.90;;;;;;5023252;28;20423;-60
2022/11/28 10:55:57;;;;;;;25.47;14.03;;;4.30;99.90;;;;;;5021396;28;21463;-60
2022/11/28 10:58:30;;;;;;;28.60;13.53;;;4.30;99.90;;;;;;5004647;28;20461;-60
2022/11/28 11:00:57;;;;;;;24.73;14.23;;;4.30;99.90;;;;;;5017712;28;20426;-59
2022/11/28 11:03:41;;;;;;;25.60;14.33;;;4.40;99.90;;;;;;5018089;28;20463;-59
2022/11/28 11:06:07;;;;;;;25.67;14.57;;;4.40;99.90;;;;;;5018214;28;20441;-59
2022/11/28 11:08:35;;;;;;;26.13;14.17;;;4.40;99.90;;;;;;5017908;28;20447;-61
2022/11/28 11:11:23;;;;;;;28.10;14.47;;;4.50;99.90;;;;;;5017585;28;20568;-59
2022/11/28 11:14:31;;;;;;;31.50;15.17;;;4.50;99.90;;;;;;5015929;28;20481;-60
2022/11/28 11:16:59;;;;;;;28.33;14.57;;;4.60;99.90;;;;;;5006857;28;22323;-60
2022/11/28 11:19:29;;;;;;;31.10;15.63;;;4.60;99.90;;;;;;5017929;28;20450;-59
2022/11/28 11:22:19;;;;;;;26.13;14.83;;;4.70;99.90;;;;;;5016667;28;20470;-59
2022/11/28 11:25:11;;;;;;;23.40;13.70;;;4.70;99.90;;;;;;5016665;28;20431;-59
2022/11/28 11:27:37;;;;;;;33.90;17.97;;;4.80;99.90;;;;;;5000689;28;20553;-60
2022/11/28 11:30:16;;;;;;;29.63;16.00;;;4.90;99.90;;;;;;5018367;28;20477;-60
2022/11/28 11:32:47;;;;;;;29.63;16.27;;;4.90;99.90;;;;;;5016082;28;20445;-59
2022/11/28 11:35:20;;;;;;;27.33;14.77;;;4.90;99.90;;;;;;5019149;28;20430;-60
2022/11/28 11:37:46;;;;;;;28.50;16.33;;;4.90;99.90;;;;;;5016429;28;21047;-60
2022/11/28 11:40:24;;;;;;;24.97;15.13;;;4.90;99.90;;;;;;5019387;28;20458;-59
2022/11/28 11:42:56;;;;;;;24.73;14.43;;;5.00;99.90;;;;;;5016991;28;20369;-61
2022/11/28 11:45:26;;;;;;;28.47;17.03;;;5.00;99.90;;;;;;5015464;28;20431;-61
2022/11/28 11:47:52;;;;;;;24.80;15.20;;;5.10;99.90;;;;;;5015697;28;20829;-59
2022/11/28 11:50:20;;;;;;;30.40;15.40;;;5.10;99.90;;;;;;5000294;28;20441;-61
2022/11/28 11:53:03;;;;;;;28.20;14.77;;;5.10;99.90;;;;;;5018655;28;20174;-59
2022/11/28 11:55:31;;;;;;;26.33;15.53;;;5.10;99.90;;;;;;5014320;28;20419;-60
2022/11/28 11:58:00;;;;;;;30.90;15.00;;;5.20;99.90;;;;;;5027896;28;20453;-60
2022/11/28 12:00:37;;;;;;;25.37;13.93;;;5.20;99.90;;;;;;5037794;28;20610;-61
2022/11/28 12:03:23;;;;;;;31.10;16.23;;;5.30;99.90;;;;;;5027523;28;21335;-59
2022/11/28 12:05:52;;;;;;;26.97;14.90;;;5.30;99.90;;;;;;5038969;28;20431;-59
2022/11/28 12:08:33;;;;;;;28.43;15.23;;;5.30;99.90;;;;;;5040014;28;20477;-60
2022/11/28 12:11:13;;;;;;;29.90;15.60;;;5.40;99.90;;;;;;5037316;28;20469;-59
2022/11/28 12:13:38;;;;;;;28.83;15.27;;;5.40;99.90;;;;;;5025026;28;20426;-59
2022/11/28 12:16:20;;;;;;;25.00;14.77;;;5.40;99.90;;;;;;5047350;28;20442;-60
2022/11/28 12:19:05;;;;;;;24.40;14.57;;;5.40;99.90;;;;;;5040099;28;21087;-59
2022/11/28 12:22:12;;;;;;;30.47;15.83;;;5.40;99.90;;;;;;5042932;28;20415;-59
2022/11/28 12:24:44;;;;;;;32.93;16.43;;;5.50;99.90;;;;;;5020196;28;20448;-58
2022/11/28 12:27:51;;;;;;;30.97;15.73;;;5.50;99.90;;;;;;5031442;28;20476;-58
2022/11/28 12:30:27;;;;;;;26.70;15.20;;;5.50;99.90;;;;;;5007654;28;20430;-60
2022/11/28 12:33:22;;;;;;;29.07;16.10;;;5.50;99.90;;;;;;5021726;28;20422;-61
2022/11/28 12:36:12;;;;;;;29.63;14.67;;;5.60;99.90;;;;;;5033103;28;20422;-60
2022/11/28 12:38:54;;;;;;;27.60;15.83;;;5.60;99.90;;;;;;5025867;28;20682;-60
2022/11/28 12:41:47;;;;;;;26.70;16.70;;;5.60;99.90;;;;;;5028578;28;20418;-60
2022/11/28 12:44:34;;;;;;;37.53;19.27;;;5.70;99.90;;;;;;5023933;28;20476;-60
2022/11/28 12:47:16;;;;;;;39.30;20.37;;;5.70;99.90;;;;;;5033959;28;20488;-62
2022/11/28 12:50:01;;;;;;;30.43;18.60;;;5.80;99.90;;;;;;5033072;28;20445;-60
2022/11/28 12:52:30;;;;;;;29.70;16.80;;;5.80;99.90;;;;;;5037213;28;20453;-60
2022/11/28 12:55:17;;;;;;;28.73;17.00;;;5.80;99.90;;;;;;5033705;28;20430;-57
2022/11/28 12:58:20;;;;;;;30.03;16.27;;;5.90;99.90;;;;;;5030812;28;20421;-56
2022/11/28 13:01:25;;;;;;;31.90;16.83;;;5.90;99.90;;;;;;5030828;28;20513;-57
2022/11/28 13:04:04;;;;;;;27.17;15.87;;;5.90;99.90;;;;;;5025760;28;20964;-60
2022/11/28 13:07:05;;;;;;;26.00;16.57;;;5.90;99.90;;;;;;5030628;28;20450;-60